Etusivu
METAR-TAF:

METAR-TAF

Lentoasemat :

Arlington Municipal Airport

Arlington, Washington, Yhdysvallat

Leveyspiiri: 48-10N, Pituuspiiri: 122-10W, korkeus merenpinnasta: 42 m

Tämänhetkinen sää

Tämä raportti tehtiin 46 minuuttia sitten, kello 01.56 UTC
tyyntä
Lämpötila 2°C
Kosteus 93%
Ilmanpaine 1027 hPa
Näkyvyys: 16.1 km
selkeää

METAR: KAWO 230156Z AUTO 00000KT 10SM CLR 02/01 A3033 RMK AO2 SLP277 T00220011 FZRANO PNO $

Aika: 18:42 (02:42 UTC)


TAF: puuttuu

Säähavainnot ja -ennusteet yli 4000 lentoasemalta (METAR- ja TAF-raportit).

Käytössä olevat sääasemat on merkitty karttaan keltaisilla ja punaisilla pisteillä.

Aseta hiiri pisteen päälle nähdäksesi sääaseman nimen.

Klikkaa sitten nähdäksesi säähavainnot ja -ennusteet.

Kartan vaihtaminen: klikkaa mustalla rastilla varustettuja vihreitä pisteitä, niin voit zoomata sisään; viivalla varustettua vihreää pistettä, niin voit zoomata ulos tai vihreitä nuolia, niin pääset viereisille kartoille.


METAR-TAF: